Time;durP1;ratioP1;P1;durP2;ratioP2;P2;SDS_P1;SDS_P2;PMS_P1;PMS_P2;Temp;Humidity;BMP_temperature;BMP_pressure;BME280_temperature;BME280_humidity;BME280_pressure;Samples;Min_cycle;Max_cycle;Signal;HPM_P1;HPM_P2
2023/03/20 00:02:10;;;;;;;37.13;12.00;;;;;;;8.33;75.85;101243.02;1795962;78;21187;-39
2023/03/20 00:04:39;;;;;;;38.35;13.35;;;;;;;8.31;75.83;101239.57;1821829;78;21045;-39
2023/03/20 00:07:11;;;;;;;28.07;9.93;;;;;;;8.23;76.01;101238.42;1824810;78;21536;-39
2023/03/20 00:09:38;;;;;;;33.13;12.00;;;;;;;8.24;76.09;101243.22;1824352;78;21113;-39
2023/03/20 00:12:07;;;;;;;29.52;10.28;;;;;;;8.19;76.24;101246.38;1835714;78;21125;-38
2023/03/20 00:14:36;;;;;;;36.10;11.55;;;;;;;8.21;76.18;101245.93;1830439;78;21469;-38
2023/03/20 00:17:07;;;;;;;29.55;11.43;;;;;;;8.26;76.03;101244.05;1833298;78;21034;-38
2023/03/20 00:19:36;;;;;;;33.95;11.43;;;;;;;8.27;75.95;101240.54;1821780;78;21043;-41
2023/03/20 00:22:05;;;;;;;31.55;11.08;;;;;;;8.28;75.90;101238.31;1825633;78;21097;-38
2023/03/20 00:24:33;;;;;;;29.50;11.08;;;;;;;8.29;75.83;101245.30;1753795;79;21093;-38
2023/03/20 00:27:02;;;;;;;30.37;12.30;;;;;;;8.30;75.81;101239.17;1742148;81;21934;-38
2023/03/20 00:29:33;;;;;;;40.52;12.23;;;;;;;8.29;75.73;101232.18;1742376;81;21081;-38
2023/03/20 00:32:01;;;;;;;31.50;12.58;;;;;;;8.29;75.77;101233.50;1765249;81;21113;-38
2023/03/20 00:34:31;;;;;;;35.40;13.78;;;;;;;8.29;75.79;101233.50;1775462;79;21132;-39
2023/03/20 00:37:00;;;;;;;27.65;11.05;;;;;;;8.26;75.81;101226.99;1768297;81;21587;-38
2023/03/20 00:39:30;;;;;;;23.70;11.08;;;;;;;8.23;75.93;101231.02;1742077;81;21212;-38
2023/03/20 00:42:02;;;;;;;31.55;11.73;;;;;;;8.17;76.14;101235.06;1756265;79;21073;-39
2023/03/20 00:44:42;;;;;;;29.45;11.97;;;;;;;8.16;76.13;101232.03;1756887;79;21142;-39
2023/03/20 00:47:13;;;;;;;34.05;13.90;;;;;;;8.16;76.15;101235.97;1755113;79;21258;-38
2023/03/20 00:49:44;;;;;;;25.80;11.53;;;;;;;8.16;76.19;101232.03;1767705;80;21014;-39
2023/03/20 00:52:14;;;;;;;30.05;12.18;;;;;;;8.17;76.15;101231.13;1774204;80;21274;-39
2023/03/20 00:54:42;;;;;;;29.15;11.55;;;;;;;8.20;76.11;101232.38;1765074;80;21039;-37
2023/03/20 00:57:29;;;;;;;31.68;12.35;;;;;;;8.23;75.93;101233.64;1735987;81;21665;-38
2023/03/20 01:00:10;;;;;;;29.63;12.80;;;;;;;8.21;75.97;101238.06;1753815;80;21112;-39
2023/03/20 01:02:39;;;;;;;24.60;10.13;;;;;;;8.19;75.98;101238.51;1732517;81;21061;-38
2023/03/20 01:05:08;;;;;;;31.00;12.28;;;;;;;8.20;75.94;101237.63;1818093;79;21023;-37
2023/03/20 01:07:36;;;;;;;32.73;14.18;;;;;;;8.16;75.98;101236.83;1789339;80;21120;-39
2023/03/20 01:10:06;;;;;;;35.92;11.63;;;;;;;8.16;76.02;101241.22;1776402;80;21110;-38
2023/03/20 01:12:35;;;;;;;32.33;12.25;;;;;;;8.16;76.03;101238.59;1732549;83;21108;-38
2023/03/20 01:15:05;;;;;;;29.77;10.98;;;;;;;8.12;76.09;101239.96;1772607;80;21099;-38
2023/03/20 01:17:34;;;;;;;38.98;13.88;;;;;;;8.14;76.09;101245.64;1803966;78;21643;-38
2023/03/20 01:20:07;;;;;;;34.70;11.97;;;;;;;8.16;76.04;101249.09;1804929;79;21181;-39
2023/03/20 01:22:36;;;;;;;35.28;11.48;;;;;;;8.19;76.00;101245.06;1808533;78;21638;-38
2023/03/20 01:25:05;;;;;;;36.77;12.15;;;;;;;8.19;76.05;101242.02;1787568;79;21184;-38
2023/03/20 01:27:34;;;;;;;29.77;12.85;;;;;;;8.18;76.02;101253.85;1787705;79;21078;-37
2023/03/20 01:30:03;;;;;;;32.63;13.00;;;;;;;8.19;75.95;101245.06;1762843;80;21181;-38
2023/03/20 01:32:32;;;;;;;45.17;13.78;;;;;;;8.18;76.00;101239.42;1782069;80;21628;-40
2023/03/20 01:35:00;;;;;;;29.98;13.25;;;;;;;8.13;76.08;101235.56;1782176;80;21047;-38
2023/03/20 01:37:29;;;;;;;34.70;12.93;;;;;;;8.10;76.18;101235.20;1782168;80;21145;-38
2023/03/20 01:39:59;;;;;;;29.27;13.13;;;;;;;8.05;76.33;101238.81;1781652;80;21066;-38
2023/03/20 01:42:29;;;;;;;39.42;13.35;;;;;;;8.05;76.39;101237.05;1782698;80;21617;-38
2023/03/20 01:44:57;;;;;;;40.15;14.15;;;;;;;8.09;76.30;101240.02;1782048;80;21149;-37
2023/03/20 01:47:28;;;;;;;38.75;14.30;;;;;;;8.09;76.29;101238.70;1782241;80;21649;-37
2023/03/20 01:50:22;;;;;;;27.20;11.85;;;;;;;8.07;76.36;101240.50;1781859;80;21098;-37
2023/03/20 01:52:55;;;;;;;32.80;13.60;;;;;;;8.05;76.44;101240.13;1767492;80;21146;-36
2023/03/20 01:55:26;;;;;;;26.25;11.00;;;;;;;8.07;76.40;101248.36;1743826;79;21114;-37
2023/03/20 01:57:59;;;;;;;31.60;13.08;;;;;;;8.06;76.44;101244.03;1812818;79;21138;-36
2023/03/20 02:00:27;;;;;;;34.80;12.58;;;;;;;8.04;76.48;101247.56;1808371;79;21137;-37
2023/03/20 02:02:57;;;;;;;36.35;13.72;;;;;;;8.01;76.55;101248.95;1793478;79;21031;-37
2023/03/20 02:05:31;;;;;;;37.95;13.83;;;;;;;8.02;76.49;101245.42;1772223;79;21063;-37
2023/03/20 02:08:02;;;;;;;40.25;12.37;;;;;;;7.98;76.67;101247.70;1812370;79;21023;-37
2023/03/20 02:10:31;;;;;;;37.23;13.80;;;;;;;7.98;76.68;101242.45;1815962;79;21055;-37
2023/03/20 02:13:05;;;;;;;36.63;13.30;;;;;;;7.97;76.72;101240.28;1803065;79;21126;-37
2023/03/20 02:15:35;;;;;;;38.60;14.03;;;;;;;7.99;76.67;101246.81;1810727;79;21177;-38
2023/03/20 02:18:12;;;;;;;30.05;12.00;;;;;;;7.95;76.66;101248.63;1814361;79;21114;-38
2023/03/20 02:21:17;;;;;;;37.53;12.40;;;;;;;7.92;76.80;101246.92;1800073;79;21074;-38
2023/03/20 02:24:05;;;;;;;34.08;11.88;;;;;;;7.96;76.69;101245.09;1788006;78;21618;-38
2023/03/20 02:26:43;;;;;;;38.70;13.68;;;;;;;7.99;76.53;101250.30;1829616;78;21069;-38
2023/03/20 02:29:31;;;;;;;35.92;13.15;;;;;;;7.96;76.60;101247.72;1830554;78;21094;-37
2023/03/20 02:32:33;;;;;;;35.20;12.70;;;;;;;7.97;76.63;101248.16;1804665;78;21069;-37
2023/03/20 02:35:24;;;;;;;40.60;15.45;;;;;;;7.97;76.62;101249.89;1821446;78;21495;-37
2023/03/20 02:38:05;;;;;;;30.62;11.95;;;;;;;7.95;76.74;101253.87;1803898;78;21074;-37
2023/03/20 02:40:43;;;;;;;39.45;15.25;;;;;;;7.92;76.86;101253.93;1808477;78;21521;-37
2023/03/20 02:43:23;;;;;;;38.92;12.98;;;;;;;7.92;76.89;101256.55;1774234;81;21071;-37
2023/03/20 02:46:01;;;;;;;32.63;13.05;;;;;;;7.93;76.87;101259.61;1713197;83;21119;-37
2023/03/20 02:48:42;;;;;;;38.58;13.55;;;;;;;7.93;76.85;101256.98;1773996;79;21174;-37
2023/03/20 02:51:14;;;;;;;35.33;13.53;;;;;;;7.89;77.01;101260.53;1774489;79;21569;-38
2023/03/20 02:54:07;;;;;;;40.45;13.48;;;;;;;7.87;77.13;101261.02;1801550;79;21161;-39
2023/03/20 02:56:39;;;;;;;35.98;14.78;;;;;;;7.90;77.08;101253.95;1802634;79;21102;-37
2023/03/20 02:59:37;;;;;;;45.12;13.03;;;;;;;7.93;77.04;101253.91;1801817;79;21160;-37
2023/03/20 03:02:18;;;;;;;44.55;13.70;;;;;;;7.95;77.03;101249.06;1782699;79;21595;-37
2023/03/20 03:04:55;;;;;;;30.52;12.10;;;;;;;7.96;76.96;101257.36;1774249;81;21066;-37
2023/03/20 03:07:27;;;;;;;46.58;14.70;;;;;;;7.94;76.92;101252.14;1814631;78;21037;-36
2023/03/20 03:09:58;;;;;;;37.65;11.88;;;;;;;7.93;76.89;101255.67;1827905;78;21145;-37
2023/03/20 03:12:39;;;;;;;38.20;12.75;;;;;;;7.95;76.80;101255.19;1826284;78;21120;-37
2023/03/20 03:15:19;;;;;;;34.78;13.25;;;;;;;7.97;76.71;101257.33;1812476;78;21046;-37
2023/03/20 03:17:49;;;;;;;31.50;12.55;;;;;;;7.98;76.69;101260.35;1827869;78;21073;-37
2023/03/20 03:20:22;;;;;;;34.53;12.98;;;;;;;7.99;76.75;101259.47;1811139;78;21489;-37
2023/03/20 03:22:51;;;;;;;45.63;14.03;;;;;;;7.98;76.70;101255.11;1802952;78;21618;-38
2023/03/20 03:25:22;;;;;;;32.65;12.25;;;;;;;7.98;76.68;101252.94;1806347;78;21058;-38
2023/03/20 03:28:00;;;;;;;39.30;13.22;;;;;;;7.98;76.68;101255.11;1811960;79;21093;-38
2023/03/20 03:30:32;;;;;;;37.53;13.70;;;;;;;7.96;76.70;101256.90;1803907;78;21130;-38
2023/03/20 03:33:15;;;;;;;42.73;14.43;;;;;;;7.92;76.86;101268.35;1795688;79;21051;-38
2023/03/20 03:35:46;;;;;;;35.83;15.68;;;;;;;7.86;77.03;101265.41;1795712;78;21046;-41
2023/03/20 03:38:37;;;;;;;43.65;14.20;;;;;;;7.76;77.33;101264.30;1804789;78;21493;-38
2023/03/20 03:41:25;;;;;;;34.60;13.28;;;;;;;7.76;77.40;101270.84;1818294;78;22495;-38
2023/03/20 03:43:59;;;;;;;27.93;11.80;;;;;;;7.76;77.42;101269.08;1797034;78;21078;-38
2023/03/20 03:46:34;;;;;;;44.27;13.70;;;;;;;7.79;77.35;101266.87;1809977;79;21054;-38
2023/03/20 03:49:05;;;;;;;38.75;13.95;;;;;;;7.82;77.22;101273.34;1802407;79;21147;-38
2023/03/20 03:51:37;;;;;;;43.38;14.45;;;;;;;7.80;77.28;101269.89;1814967;78;21054;-38
2023/03/20 03:54:12;;;;;;;38.50;15.83;;;;;;;7.74;77.57;101267.80;1790754;80;21532;-38
2023/03/20 03:56:44;;;;;;;36.23;14.87;;;;;;;7.74;77.58;101269.56;1790735;80;21102;-38
2023/03/20 03:59:34;;;;;;;49.63;15.68;;;;;;;7.72;77.75;101273.52;1790666;79;21145;-38
2023/03/20 04:02:04;;;;;;;47.10;14.93;;;;;;;7.68;77.88;101277.09;1790918;78;21154;-38
2023/03/20 04:04:35;;;;;;;34.63;12.15;;;;;;;7.65;78.06;101281.07;1768352;81;21148;-38
2023/03/20 04:07:04;;;;;;;40.20;14.25;;;;;;;7.70;78.01;101285.79;1782632;79;21642;-38
2023/03/20 04:09:34;;;;;;;41.37;13.10;;;;;;;7.73;77.88;101280.50;1795882;78;21639;-37
2023/03/20 04:12:03;;;;;;;45.45;14.75;;;;;;;7.76;77.74;101280.02;1797243;78;21156;-38
2023/03/20 04:14:33;;;;;;;45.10;15.25;;;;;;;7.81;77.69;101286.05;1797962;78;21030;-38
2023/03/20 04:17:02;;;;;;;36.85;13.13;;;;;;;7.74;77.97;101291.39;1797091;79;21089;-38
2023/03/20 04:19:32;;;;;;;46.90;14.30;;;;;;;7.73;78.00;101285.74;1796743;78;21069;-38
2023/03/20 04:22:01;;;;;;;34.38;14.10;;;;;;;7.73;78.00;101292.75;1809082;78;21090;-38
2023/03/20 04:24:31;;;;;;;44.53;15.75;;;;;;;7.72;78.05;101290.55;1789907;79;21239;-38
2023/03/20 04:27:01;;;;;;;43.30;14.50;;;;;;;7.70;78.21;101298.89;1794060;79;21545;-38
2023/03/20 04:29:30;;;;;;;51.00;15.25;;;;;;;7.69;78.23;101295.88;1816443;79;21160;-38
2023/03/20 04:32:03;;;;;;;39.85;13.98;;;;;;;7.69;78.26;101293.67;1799011;79;21078;-38
2023/03/20 04:34:39;;;;;;;42.08;15.85;;;;;;;7.71;78.24;101291.47;1802088;79;21113;-37
2023/03/20 04:37:09;;;;;;;36.58;14.35;;;;;;;7.72;78.24;101291.01;1803672;79;21115;-37
2023/03/20 04:39:46;;;;;;;35.33;14.05;;;;;;;7.73;78.22;101293.61;1790627;79;21082;-37
2023/03/20 04:42:16;;;;;;;40.45;14.73;;;;;;;7.74;78.18;101292.70;1796482;79;21540;-38
2023/03/20 04:44:45;;;;;;;40.30;15.28;;;;;;;7.72;78.26;101299.73;1802145;79;21154;-37
2023/03/20 04:47:14;;;;;;;43.17;16.55;;;;;;;7.70;78.36;101300.20;1785188;79;21707;-38
2023/03/20 04:49:43;;;;;;;36.77;14.85;;;;;;;7.67;78.47;101294.16;1810779;79;21148;-38
2023/03/20 04:52:12;;;;;;;45.55;15.23;;;;;;;7.66;78.61;101291.98;1785078;79;21128;-38
2023/03/20 04:54:42;;;;;;;38.58;14.05;;;;;;;7.65;78.77;101296.80;1811788;79;21114;-38
2023/03/20 04:57:12;;;;;;;53.60;15.35;;;;;;;7.66;78.72;101291.13;1796368;79;21086;-38
2023/03/20 04:59:41;;;;;;;39.75;14.65;;;;;;;7.66;78.69;101292.45;1801131;79;21063;-39
2023/03/20 05:02:13;;;;;;;47.03;16.80;;;;;;;7.68;78.63;101296.75;1797877;79;21055;-39
2023/03/20 05:04:41;;;;;;;41.35;14.85;;;;;;;7.69;78.67;101292.36;1783056;80;21102;-39
2023/03/20 05:07:10;;;;;;;43.40;14.10;;;;;;;7.64;78.79;101300.78;1785440;80;21067;-39
2023/03/20 05:09:43;;;;;;;38.50;15.93;;;;;;;7.63;78.86;101301.20;1783281;79;21140;-39
2023/03/20 05:12:14;;;;;;;39.80;14.43;;;;;;;7.65;78.95;101298.11;1781977;79;21201;-38
2023/03/20 05:14:44;;;;;;;46.45;14.78;;;;;;;7.69;79.09;101299.80;1782637;79;21158;-39
2023/03/20 05:17:24;;;;;;;37.05;14.23;;;;;;;7.72;79.16;101302.80;1751705;81;21085;-38
2023/03/20 05:20:11;;;;;;;39.10;15.32;;;;;;;7.71;79.13;101296.70;1797135;79;21090;-39
2023/03/20 05:22:41;;;;;;;41.10;15.30;;;;;;;7.72;79.19;101301.04;1808011;79;21118;-39
2023/03/20 05:25:14;;;;;;;37.13;12.23;;;;;;;7.72;79.07;101298.42;1784882;78;21074;-43
2023/03/20 05:27:46;;;;;;;43.33;14.10;;;;;;;7.74;78.99;101297.09;1816806;78;21628;-38
2023/03/20 05:30:22;;;;;;;40.33;15.30;;;;;;;7.72;78.98;101300.19;1803163;78;21062;-37
2023/03/20 05:32:58;;;;;;;25.90;10.78;;;;;;;7.69;79.14;101301.12;1808682;78;21109;-38
2023/03/20 05:35:31;;;;;;;37.63;14.38;;;;;;;7.71;79.23;101297.16;1827049;78;21489;-37
2023/03/20 05:38:02;;;;;;;34.65;13.65;;;;;;;7.75;79.14;101298.83;1819644;78;21061;-38
2023/03/20 05:40:50;;;;;;;27.55;11.70;;;;;;;7.78;79.16;101299.20;1827323;78;21505;-38
2023/03/20 05:43:23;;;;;;;37.00;13.20;;;;;;;7.79;79.29;101297.02;1796072;78;21198;-37
2023/03/20 05:45:57;;;;;;;30.30;12.78;;;;;;;7.81;79.27;101309.64;1826405;78;21155;-39
2023/03/20 05:48:43;;;;;;;33.05;12.47;;;;;;;7.84;79.21;101308.25;1827755;78;21085;-38
2023/03/20 05:51:23;;;;;;;28.60;12.55;;;;;;;7.86;79.20;101311.29;1779145;80;21096;-38
2023/03/20 05:53:53;;;;;;;28.35;11.22;;;;;;;7.88;79.17;101305.56;1800921;78;21068;-39
2023/03/20 05:56:23;;;;;;;25.17;11.03;;;;;;;7.91;79.12;101308.14;1805768;78;21089;-38
2023/03/20 05:58:54;;;;;;;29.72;12.37;;;;;;;7.93;79.14;101312.05;1820801;78;21147;-38
2023/03/20 06:01:30;;;;;;;27.55;11.55;;;;;;;7.96;79.08;101308.03;1833205;78;21625;-39
2023/03/20 06:04:00;;;;;;;24.00;11.20;;;;;;;8.00;79.06;101307.08;1820460;78;21562;-39
2023/03/20 06:06:36;;;;;;;34.70;11.38;;;;;;;8.00;79.10;101303.14;1812768;78;21085;-38
2023/03/20 06:09:06;;;;;;;24.35;10.50;;;;;;;8.00;79.20;101309.70;1815494;78;21037;-38
2023/03/20 06:11:35;;;;;;;26.35;11.73;;;;;;;8.03;79.24;101312.27;1824301;78;21628;-38
2023/03/20 06:14:04;;;;;;;27.67;10.88;;;;;;;8.03;79.34;101309.65;1799203;78;21086;-38
2023/03/20 06:16:37;;;;;;;25.50;10.93;;;;;;;8.08;79.31;101307.81;1796076;78;21054;-38
2023/03/20 06:19:06;;;;;;;29.92;11.43;;;;;;;8.08;79.38;101310.44;1800485;78;21560;-37
2023/03/20 06:21:34;;;;;;;23.15;10.38;;;;;;;8.10;79.37;101307.33;1829145;78;21062;-37
2023/03/20 06:24:04;;;;;;;30.48;12.00;;;;;;;8.12;79.33;101312.09;1795321;78;21497;-38
2023/03/20 06:26:33;;;;;;;27.48;10.38;;;;;;;8.16;79.37;101312.90;1786475;79;21102;-38
2023/03/20 06:29:03;;;;;;;23.77;10.75;;;;;;;8.16;79.38;101312.90;1784091;79;21077;-38
2023/03/20 06:31:32;;;;;;;20.23;9.20;;;;;;;8.09;79.61;101313.45;1792564;79;21486;-37
2023/03/20 06:34:02;;;;;;;25.85;11.05;;;;;;;8.06;79.73;101309.60;1785133;79;21513;-38
2023/03/20 06:36:32;;;;;;;26.57;13.22;;;;;;;8.08;79.66;101309.58;1790993;79;21122;-38
2023/03/20 06:39:02;;;;;;;25.90;9.58;;;;;;;8.06;79.75;101305.67;1812763;79;21109;-38
2023/03/20 06:41:31;;;;;;;36.58;12.53;;;;;;;8.10;79.79;101303.39;1768867;79;21564;-38
2023/03/20 06:44:00;;;;;;;27.50;11.00;;;;;;;8.04;79.90;101303.53;1790160;79;21196;-38
2023/03/20 06:46:30;;;;;;;30.90;12.37;;;;;;;8.08;79.89;101299.94;1810471;79;21148;-38
2023/03/20 06:48:59;;;;;;;30.27;13.20;;;;;;;8.08;79.79;101294.70;1811907;79;21106;-37
2023/03/20 06:51:28;;;;;;;33.92;11.95;;;;;;;8.10;79.77;101288.11;1799377;79;21545;-38
2023/03/20 06:53:57;;;;;;;29.52;13.03;;;;;;;8.09;79.94;101293.78;1784960;79;21042;-38
2023/03/20 06:56:27;;;;;;;39.53;13.70;;;;;;;8.08;79.99;101290.76;1782112;79;21134;-38
2023/03/20 06:58:56;;;;;;;34.58;14.28;;;;;;;8.10;80.00;101294.22;1786966;79;21136;-38
2023/03/20 07:01:26;;;;;;;38.50;14.80;;;;;;;8.16;80.03;101287.13;1799108;79;21090;-38
2023/03/20 07:03:55;;;;;;;36.58;13.98;;;;;;;8.19;80.09;101289.66;1795793;79;21152;-38
2023/03/20 07:06:25;;;;;;;30.05;13.08;;;;;;;8.20;80.14;101282.22;1788966;79;21659;-38
2023/03/20 07:08:54;;;;;;;34.40;13.05;;;;;;;8.26;80.06;101282.09;1781946;79;21094;-38
2023/03/20 07:11:23;;;;;;;32.13;14.07;;;;;;;8.29;79.97;101295.16;1789010;79;21090;-38
2023/03/20 07:13:53;;;;;;;28.07;11.85;;;;;;;8.32;79.92;101297.72;1809343;79;21083;-38
2023/03/20 07:16:29;;;;;;;40.00;13.62;;;;;;;8.36;79.80;101288.88;1788501;79;21115;-38
2023/03/20 07:18:57;;;;;;;36.13;12.63;;;;;;;8.34;79.68;101290.68;1774330;79;21054;-38
2023/03/20 07:21:27;;;;;;;34.70;12.90;;;;;;;8.29;79.80;101294.70;1794026;79;21109;-39
2023/03/20 07:23:56;;;;;;;36.65;13.95;;;;;;;8.27;79.93;101297.80;1781174;80;21596;-38
2023/03/20 07:26:26;;;;;;;36.75;12.50;;;;;;;8.32;79.91;101301.66;1798749;79;21557;-38
2023/03/20 07:28:54;;;;;;;31.25;12.63;;;;;;;8.32;79.94;101305.59;1821877;79;21086;-40
2023/03/20 07:31:31;;;;;;;39.53;13.25;;;;;;;8.32;79.86;101302.97;1811828;78;21536;-38
2023/03/20 07:34:19;;;;;;;33.80;13.65;;;;;;;8.35;79.92;101302.89;1807892;78;21178;-38
2023/03/20 07:36:48;;;;;;;48.17;14.07;;;;;;;8.42;79.81;101301.90;1813797;78;21145;-38
2023/03/20 07:39:18;;;;;;;38.78;12.30;;;;;;;8.42;79.78;101301.90;1799586;78;21084;-39
2023/03/20 07:41:48;;;;;;;47.67;13.48;;;;;;;8.41;79.82;101304.09;1814281;78;21094;-38
2023/03/20 07:44:19;;;;;;;32.17;12.30;;;;;;;8.43;79.80;101302.78;1823876;78;21124;-38
2023/03/20 07:46:49;;;;;;;40.98;12.98;;;;;;;8.39;79.86;101298.44;1785875;78;21098;-38
2023/03/20 07:49:18;;;;;;;35.28;11.38;;;;;;;8.40;79.75;101307.59;1827658;78;21054;-38
2023/03/20 07:51:48;;;;;;;32.70;13.18;;;;;;;8.42;79.69;101309.77;1808483;78;21053;-38
2023/03/20 07:54:18;;;;;;;39.23;12.98;;;;;;;8.42;79.69;101307.15;1804890;78;21114;-38
2023/03/20 07:56:46;;;;;;;40.30;13.50;;;;;;;8.44;79.67;101309.28;1797263;78;21662;-37
2023/03/20 07:59:15;;;;;;;36.33;12.65;;;;;;;8.44;79.65;101305.34;1796970;79;21050;-37
2023/03/20 08:01:44;;;;;;;45.95;13.43;;;;;;;8.46;79.60;101302.24;1797200;78;21050;-37
2023/03/20 08:04:13;;;;;;;34.18;12.40;;;;;;;8.43;79.73;101308.89;1806393;78;21119;-38
2023/03/20 08:06:42;;;;;;;36.98;13.60;;;;;;;8.40;79.86;101308.91;1818589;77;21122;-38
2023/03/20 08:09:11;;;;;;;48.75;14.38;;;;;;;8.32;80.08;101310.84;1795999;79;21054;-38
2023/03/20 08:11:39;;;;;;;48.10;13.03;;;;;;;8.28;80.33;101301.28;1796988;78;21081;-38
2023/03/20 08:14:08;;;;;;;43.92;13.50;;;;;;;8.21;80.64;101308.89;1783189;78;21135;-38
2023/03/20 08:16:37;;;;;;;52.93;13.95;;;;;;;8.18;80.83;101320.74;1810747;78;21120;-38
2023/03/20 08:19:05;;;;;;;45.67;13.53;;;;;;;8.24;80.79;101314.91;1835150;78;21018;-38
2023/03/20 08:21:34;;;;;;;42.38;13.08;;;;;;;8.26;80.79;101309.21;1835553;78;21061;-38
2023/03/20 08:24:03;;;;;;;37.53;13.35;;;;;;;8.35;80.62;101313.38;1830012;78;21046;-38
2023/03/20 08:26:31;;;;;;;42.00;12.45;;;;;;;8.37;80.49;101315.52;1824315;78;21102;-38
2023/03/20 08:29:00;;;;;;;53.23;15.85;;;;;;;8.43;80.34;101308.89;1828847;78;21156;-38
2023/03/20 08:31:30;;;;;;;35.33;13.85;;;;;;;8.43;80.38;101318.53;1808067;78;21074;-38
2023/03/20 08:33:58;;;;;;;37.00;11.40;;;;;;;8.42;80.53;101309.77;1796033;78;21583;-37
2023/03/20 08:36:27;;;;;;;23.70;8.85;;;;;;;8.37;80.53;101311.59;1797257;78;21050;-37
2023/03/20 08:38:56;;;;;;;43.23;14.20;;;;;;;8.39;80.46;101315.50;1796007;78;21140;-37
2023/03/20 08:41:25;;;;;;;44.13;14.53;;;;;;;8.47;80.34;101317.56;1796835;78;21128;-37
2023/03/20 08:43:53;;;;;;;52.43;15.10;;;;;;;8.53;80.16;101317.42;1797092;78;21030;-37
2023/03/20 08:46:22;;;;;;;41.42;13.28;;;;;;;8.56;80.06;101315.16;1795853;79;21054;-37
2023/03/20 08:48:50;;;;;;;42.30;13.22;;;;;;;8.57;80.14;101310.34;1796961;78;21093;-37
2023/03/20 08:51:19;;;;;;;44.70;12.85;;;;;;;8.63;80.10;101310.20;1808551;78;21042;-40
2023/03/20 08:53:48;;;;;;;46.45;13.48;;;;;;;8.68;79.99;101308.34;1835666;78;21045;-39
2023/03/20 08:56:17;;;;;;;40.48;13.58;;;;;;;8.71;80.03;101300.41;1831045;78;21054;-39
2023/03/20 08:58:45;;;;;;;49.70;14.15;;;;;;;8.71;80.16;101298.25;1802154;78;21132;-40
2023/03/20 09:01:14;;;;;;;39.05;13.43;;;;;;;8.76;80.16;101292.42;1799240;78;21565;-37
2023/03/20 09:03:43;;;;;;;50.23;14.23;;;;;;;8.70;80.30;101296.05;1796959;79;21185;-38
2023/03/20 09:06:12;;;;;;;59.55;15.38;;;;;;;8.72;80.29;101299.50;1818214;78;21128;-37
2023/03/20 09:08:41;;;;;;;58.42;15.55;;;;;;;8.77;80.26;101302.89;1793651;78;21155;-38
2023/03/20 09:11:09;;;;;;;52.95;14.87;;;;;;;8.79;80.34;101298.47;1778707;81;21624;-38
2023/03/20 09:13:38;;;;;;;47.53;15.55;;;;;;;8.85;80.41;101297.03;1773060;81;21179;-39
2023/03/20 09:16:07;;;;;;;41.42;13.68;;;;;;;8.88;80.40;101297.40;1783307;80;21050;-38
2023/03/20 09:18:36;;;;;;;43.85;15.15;;;;;;;8.86;80.39;101296.12;1802268;80;21062;-39
2023/03/20 09:21:05;;;;;;;53.35;16.45;;;;;;;8.88;80.42;101299.56;1802140;80;21137;-38
2023/03/20 09:23:34;;;;;;;53.85;13.83;;;;;;;8.79;80.53;101301.09;1790521;80;21102;-40
2023/03/20 09:26:03;;;;;;;54.53;14.98;;;;;;;8.81;80.62;101305.00;1771719;80;21098;-38
2023/03/20 09:28:32;;;;;;;53.00;14.47;;;;;;;8.88;80.63;101302.66;1825363;79;21164;-37
2023/03/20 09:31:01;;;;;;;58.00;14.80;;;;;;;8.93;80.56;101305.16;1825456;79;21540;-37
2023/03/20 09:33:30;;;;;;;55.98;15.88;;;;;;;9.00;80.37;101298.87;1825255;79;21561;-37
2023/03/20 09:35:58;;;;;;;49.48;11.88;;;;;;;8.98;80.45;101293.67;1825259;79;21128;-38
2023/03/20 09:38:27;;;;;;;51.70;14.40;;;;;;;9.00;80.42;101285.30;1825237;78;21183;-37
2023/03/20 09:41:03;;;;;;;61.30;14.55;;;;;;;9.05;80.29;101286.49;1808122;78;21062;-36
2023/03/20 09:43:49;;;;;;;58.73;12.68;;;;;;;9.08;80.10;101281.17;1809652;78;21500;-36
2023/03/20 09:46:48;;;;;;;63.85;14.90;;;;;;;9.08;80.00;101282.03;1825261;79;21054;-38
2023/03/20 09:49:31;;;;;;;53.65;14.18;;;;;;;9.08;80.04;101275.92;1805334;79;21038;-37
2023/03/20 09:52:02;;;;;;;47.50;13.40;;;;;;;9.09;80.18;101277.63;1802768;79;21148;-37
2023/03/20 09:54:39;;;;;;;56.92;16.75;;;;;;;9.10;80.28;101281.14;1799447;79;21109;-39
2023/03/20 09:57:17;;;;;;;44.05;12.45;;;;;;;9.13;80.23;101275.37;1802600;79;21050;-39
2023/03/20 09:59:47;;;;;;;63.83;16.40;;;;;;;9.20;80.14;101279.57;1801704;79;21066;-39
2023/03/20 10:02:23;;;;;;;59.60;15.43;;;;;;;9.33;79.98;101271.36;1802742;79;21112;-39
2023/03/20 10:04:50;;;;;;;66.40;16.85;;;;;;;9.36;79.94;101267.35;1802155;79;21627;-39
2023/03/20 10:07:20;;;;;;;63.52;15.80;;;;;;;9.37;79.88;101258.55;1802698;79;21038;-39
2023/03/20 10:09:49;;;;;;;58.35;15.48;;;;;;;9.43;79.89;101267.61;1802744;79;21588;-39
2023/03/20 10:12:42;;;;;;;48.02;14.25;;;;;;;9.46;79.86;101259.63;1802812;79;21547;-39
2023/03/20 10:15:22;;;;;;;53.98;14.98;;;;;;;9.51;79.71;101263.46;1802797;79;21058;-39
2023/03/20 10:18:03;;;;;;;55.43;16.97;;;;;;;9.51;79.53;101264.31;1773938;81;21536;-40
2023/03/20 10:20:37;;;;;;;53.58;15.20;;;;;;;9.46;79.72;101261.83;1774154;81;21113;-39
2023/03/20 10:23:09;;;;;;;64.97;15.35;;;;;;;9.47;79.74;101253.48;1774161;81;21139;-39
2023/03/20 10:25:55;;;;;;;53.58;15.05;;;;;;;9.52;79.66;101256.86;1774105;80;21140;-39
2023/03/20 10:28:30;;;;;;;60.70;17.37;;;;;;;9.58;79.59;101258.00;1774144;81;21658;-39
2023/03/20 10:31:26;;;;;;;57.40;15.00;;;;;;;9.59;79.58;101257.11;1766756;80;21176;-39
2023/03/20 10:34:12;;;;;;;57.27;15.20;;;;;;;9.62;79.48;101261.41;1774114;81;21520;-39
2023/03/20 10:36:52;;;;;;;52.27;15.48;;;;;;;9.65;79.39;101260.02;1773340;80;21643;-39
2023/03/20 10:39:56;;;;;;;50.40;15.35;;;;;;;9.70;79.32;101262.52;1773783;81;21183;-39
2023/03/20 10:42:28;;;;;;;40.40;12.80;;;;;;;9.64;79.27;101265.70;1774174;80;21568;-39
2023/03/20 10:45:14;;;;;;;44.23;14.03;;;;;;;9.57;79.39;101261.55;1772994;79;21578;-39
2023/03/20 10:47:45;;;;;;;40.50;10.90;;;;;;;9.58;79.32;101252.73;1774102;81;21074;-39
2023/03/20 10:50:19;;;;;;;54.42;15.90;;;;;;;9.56;79.26;101247.98;1774216;81;21520;-39
2023/03/20 10:52:51;;;;;;;54.48;14.50;;;;;;;9.57;79.29;101245.77;1773769;81;21053;-39
2023/03/20 10:55:29;;;;;;;60.52;16.37;;;;;;;9.58;79.44;101245.31;1774128;81;21461;-39
2023/03/20 10:58:22;;;;;;;45.10;13.75;;;;;;;9.66;79.47;101237.64;1774238;81;21067;-39
2023/03/20 11:00:52;;;;;;;46.85;11.68;;;;;;;9.81;79.43;101240.72;1774295;81;21078;-39
2023/03/20 11:03:24;;;;;;;47.80;15.63;;;;;;;9.87;79.14;101245.83;1774163;81;21053;-39
2023/03/20 11:05:56;;;;;;;61.10;17.10;;;;;;;9.84;78.99;101243.28;1774032;81;21429;-39
2023/03/20 11:08:27;;;;;;;48.28;15.48;;;;;;;9.86;79.07;101244.09;1774084;79;21117;-39
2023/03/20 11:11:01;;;;;;;52.38;15.05;;;;;;;9.94;79.03;101239.50;1774225;80;21517;-39
2023/03/20 11:13:44;;;;;;;61.70;16.87;;;;;;;10.01;78.92;101245.42;1774218;81;21465;-39
2023/03/20 11:16:22;;;;;;;53.25;15.10;;;;;;;10.10;78.67;101249.11;1785077;80;21128;-39
2023/03/20 11:18:53;;;;;;;55.00;15.30;;;;;;;10.14;78.44;101244.62;1801616;79;21058;-39
2023/03/20 11:21:28;;;;;;;52.35;15.98;;;;;;;10.16;78.35;101252.02;1801639;80;21183;-39
2023/03/20 11:23:57;;;;;;;54.08;15.78;;;;;;;10.15;78.27;101252.94;1801691;80;21062;-39
2023/03/20 11:26:41;;;;;;;48.83;14.35;;;;;;;10.12;78.28;101245.97;1801521;80;21062;-41
2023/03/20 11:29:16;;;;;;;35.92;13.40;;;;;;;10.13;78.26;101241.59;1801521;79;21172;-39
2023/03/20 11:31:45;;;;;;;48.28;15.43;;;;;;;10.12;78.18;101245.12;1801648;78;21105;-38
2023/03/20 11:34:19;;;;;;;53.38;16.23;;;;;;;10.11;78.01;101248.68;1801641;80;21038;-38
2023/03/20 11:36:56;;;;;;;45.35;14.40;;;;;;;10.08;78.16;101251.39;1801597;80;21066;-39
2023/03/20 11:39:36;;;;;;;19.95;9.13;;;;;;;10.13;78.12;101251.66;1801653;80;21101;-39
2023/03/20 11:42:02;;;;;;;51.15;15.35;;;;;;;10.10;77.93;101251.73;1800898;80;21089;-39
2023/03/20 11:45:02;;;;;;;44.73;14.93;;;;;;;10.04;77.93;101252.78;1801575;80;21070;-39